Sign-in with your pilot id or email, or register

ICAO: LRAR Name / Country: Arad / Romania
Latitude: 46.1766 Longitude: 21.262
Total Arrivals:
Strict Standards: Non-static method AirportData::getarrflights() should not be called statically, assuming $this from incompatible context in /var/www/customers/vh-7192/web/home/phpvms/core/templates/airport_info.tpl on line 18
2
Total Departures:
Strict Standards: Non-static method AirportData::getdeptflights() should not be called statically, assuming $this from incompatible context in /var/www/customers/vh-7192/web/home/phpvms/core/templates/airport_info.tpl on line 21
3
Latest Arrival: MTA11P (LHBP-LRAR) Tibor Berces Latest Departure: MTA11P (LRAR-LHBP) Tibor Berces
Metar: LRAR 270900Z 28005KT 240V350 9999 FEW030 14/06 Q1010
More info

Charts for LRAR


NOTAM


Warning: file_get_contents(http://api.vateud.net/notams/LRAR.json): failed to open stream: Redirection limit reached, aborting in /var/www/customers/vh-7192/web/home/phpvms/core/common/NOTAMSData.class.php on line 18

Warning: Invalid argument supplied for foreach() in /var/www/customers/vh-7192/web/home/phpvms/core/common/NOTAMSData.class.php on line 22

Arad